createdAt,value
2023-02-07T00:00:02.246Z,0
2023-02-07T00:15:02.825Z,0
2023-02-07T00:30:02.128Z,0
2023-02-07T00:45:02.785Z,0
2023-02-07T01:00:03.025Z,0
2023-02-07T01:15:02.464Z,0
2023-02-07T01:30:02.925Z,0
2023-02-07T01:45:02.301Z,0
2023-02-07T02:00:02.836Z,0
2023-02-07T02:15:02.165Z,0
2023-02-07T02:30:02.848Z,0
2023-02-07T02:45:02.049Z,0
2023-02-07T03:00:02.490Z,0
2023-02-07T03:15:02.958Z,0
2023-02-07T03:30:02.362Z,0
2023-02-07T03:45:02.876Z,0
2023-02-07T04:00:02.222Z,0
2023-02-07T04:15:02.899Z,0
2023-02-07T04:30:02.101Z,0
2023-02-07T04:45:02.556Z,0
2023-02-07T05:00:03.005Z,0
2023-02-07T05:15:02.417Z,0
2023-02-07T05:30:02.908Z,0
2023-02-07T05:45:02.295Z,0
2023-02-07T06:00:02.898Z,0
2023-02-07T06:15:02.154Z,0
2023-02-07T06:30:02.623Z,0
2023-02-07T06:45:03.029Z,0
2023-02-07T07:00:02.485Z,0
2023-02-07T07:15:02.925Z,2
2023-02-07T07:30:02.330Z,30
2023-02-07T07:45:02.949Z,47
2023-02-07T08:00:02.210Z,89
2023-02-07T08:15:02.643Z,78
2023-02-07T08:30:03.099Z,97
2023-02-07T08:45:02.626Z,129
2023-02-07T09:00:02.961Z,124
2023-02-07T09:15:02.411Z,219
2023-02-07T09:30:02.955Z,281
2023-02-07T09:45:02.564Z,341
2023-02-07T10:00:02.914Z,307
2023-02-07T10:15:02.147Z,294
2023-02-07T10:30:02.588Z,303
2023-02-07T10:45:03.060Z,313
2023-02-07T11:00:02.495Z,321
2023-02-07T11:15:02.990Z,322
2023-02-07T11:30:02.328Z,320
2023-02-07T11:45:03.008Z,324
2023-02-07T12:00:02.206Z,318
2023-02-07T12:15:02.668Z,317
2023-02-07T12:30:03.113Z,311
2023-02-07T12:45:02.539Z,298
2023-02-07T13:00:03.037Z,286
2023-02-07T13:15:02.407Z,270
2023-02-07T13:30:03.011Z,252
2023-02-07T13:45:02.322Z,230
2023-02-07T14:00:02.735Z,208
2023-02-07T14:15:03.455Z,186
2023-02-07T14:30:02.613Z,162
2023-02-07T14:45:03.062Z,136
2023-02-07T15:00:02.552Z,112
2023-02-07T15:15:03.043Z,84
2023-02-07T15:30:02.410Z,54
2023-02-07T15:45:05.213Z,9
2023-02-07T16:00:02.263Z,5
2023-02-07T16:15:02.687Z,0
2023-02-07T16:30:03.132Z,0
2023-02-07T16:45:02.539Z,0
2023-02-07T17:00:03.126Z,0
2023-02-07T17:15:02.414Z,0
2023-02-07T17:30:03.085Z,0
2023-02-07T17:45:02.290Z,0
2023-02-07T18:00:02.730Z,0
2023-02-07T18:15:03.168Z,0
2023-02-07T18:30:02.675Z,0
2023-02-07T18:45:03.131Z,0
2023-02-07T19:00:02.465Z,0
2023-02-07T19:15:03.115Z,0
2023-02-07T19:30:02.383Z,0
2023-02-07T19:45:02.810Z,0
2023-02-07T20:00:03.240Z,0
2023-02-07T20:15:02.662Z,0
2023-02-07T20:30:03.184Z,0
2023-02-07T20:45:02.524Z,0
2023-02-07T21:00:03.148Z,0
2023-02-07T21:15:02.394Z,0
2023-02-07T21:30:02.834Z,0
2023-02-07T21:45:02.247Z,0
2023-02-07T22:00:02.700Z,0
2023-02-07T22:15:03.183Z,0
2023-02-07T22:30:02.535Z,0
2023-02-07T22:45:03.168Z,0
2023-02-07T23:00:02.413Z,0
2023-02-07T23:15:02.857Z,0
2023-02-07T23:30:02.290Z,0
2023-02-07T23:45:02.710Z,0
